Latest Weather Observations for Mount Gambier

IDS60801

Issued at 6:05 pm CDT Friday 31 October 2014 (issued every 30 minutes, with the page automatically refreshed every 10 minutes)

About weather observations | Map of weather stations | Latest weather observations for SA | Other Formats
Station Details ID: 026021 Name: MOUNT GAMBIER AERO Lat: -37.75 Lon: 140.77 Height: 63.0 m
Data from the previous 72 hours. | See also: Recent months at Mount Gambier
Date/Time
CDT
Temp
°C
App
Temp
°C
Dew
Point
Rel
Hum
%
Delta-T
°C
Wind Press
QNH
hPa
Press
MSL
hPa
Rain
since 9 am
mm
Dir
 
Spd
km/h
Gust
km/h
Spd
kts
Gust
kts
31/06:00pm 20.0 13.2 10.5 54 5.2 W 37 48 20 26 998.5 998.4 0.0
31/05:30pm 23.8 15.9 4.4 28 9.7 W 35 43 19 23 998.2 - 0.0
31/05:00pm 26.8 17.5 3.1 21 11.7 W 41 56 22 30 998.1 - 0.0
31/04:50pm 27.0 17.6 2.5 20 12.0 W 41 50 22 27 998.0 - 0.0
31/04:30pm 29.6 20.7 1.0 16 13.9 WNW 37 50 20 27 998.0 - 0.0
31/04:00pm 29.9 21.8 0.0 14 14.3 WNW 32 44 17 24 998.0 - 0.0
31/03:30pm 30.3 20.7 -1.2 13 14.8 WNW 39 56 21 30 998.3 - 0.0
31/03:10pm 31.5 21.4 -2.2 11 15.7 WNW 41 48 22 26 998.5 - 0.0
31/03:00pm 32.3 23.3 -2.8 10 16.4 NNW 35 59 19 32 998.6 998.5 0.0
31/02:30pm 30.9 21.7 -1.5 12 15.2 NNW 37 56 20 30 999.3 - 0.0
31/02:18pm 31.2 23.1 -0.2 13 15.1 N 32 50 17 27 999.6 - 0.0
31/02:00pm 32.1 24.0 -0.5 12 15.7 N 32 48 17 26 999.9 - 0.0
31/01:30pm 31.7 23.3 -0.7 12 15.6 N 33 54 18 29 1000.2 - 0.0
31/01:29pm 31.2 22.8 -1.1 12 15.3 N 33 52 18 28 1000.3 - 0.0
31/01:00pm 29.9 20.9 -0.1 14 14.3 N 37 54 20 29 1000.7 - 0.0
31/12:30pm 28.7 19.8 -1.8 13 14.0 N 35 59 19 32 1001.3 - 0.0
31/12:00pm 27.5 18.0 -0.4 16 13.1 N 39 57 21 31 1001.9 1001.8 0.0
31/11:30am 28.6 20.2 1.3 17 13.3 N 35 54 19 29 1002.3 - 0.0
31/11:07am 26.9 18.7 0.6 18 12.4 N 33 52 18 28 1002.8 - 0.0
31/11:00am 26.8 18.7 0.8 18 12.3 N 33 48 18 26 1002.9 - 0.0
31/10:30am 25.3 17.3 0.6 20 11.6 N 32 44 17 24 1003.3 - 0.0
31/10:00am 24.6 17.3 5.4 29 9.8 N 33 46 18 25 1004.0 - 0.0
31/09:30am 21.9 16.0 7.3 39 7.6 N 28 39 15 21 1004.7 - 0.0
31/09:00am 20.1 13.3 6.7 41 6.8 N 32 35 17 19 1004.9 1004.9 0.0
31/08:30am 17.8 13.2 8.1 53 5.0 NNE 22 32 12 17 1005.3 - 0.0
31/08:00am 14.4 10.6 8.9 69 2.8 NNE 19 22 10 12 1005.7 - 0.0
31/07:30am 13.0 9.5 8.6 74 2.2 NNE 17 20 9 11 1005.8 - 0.0
31/07:00am 12.1 8.9 8.5 78 1.8 NE 15 17 8 9 1006.0 - 0.0
31/06:30am 11.5 7.5 8.3 81 1.6 NNE 19 20 10 11 1006.4 - 0.0
31/06:00am 10.7 8.7 8.7 87 1.0 NE 9 11 5 6 1007.0 1007.0 0.0
31/05:30am 10.9 7.0 8.5 85 1.2 NE 19 22 10 12 1007.0 - 0.0
31/05:00am 10.5 7.7 8.5 87 1.0 NE 13 13 7 7 1007.5 - 0.0
31/04:30am 10.4 7.6 8.6 89 0.9 NE 13 17 7 9 1007.6 - 0.0
31/04:00am 10.3 7.9 8.5 89 0.9 NE 11 13 6 7 1008.2 - 0.0
31/03:30am 10.2 7.7 8.4 89 0.9 NE 11 13 6 7 1008.7 - 0.0
31/03:00am 9.9 7.4 8.0 88 0.9 NE 11 13 6 7 1009.2 1009.2 0.0
31/02:30am 9.9 7.7 8.0 88 0.9 NE 9 13 5 7 1009.9 - 0.0
31/02:00am 9.8 6.9 8.2 90 0.8 NE 13 15 7 8 1010.3 - 0.0
31/01:30am 8.9 6.7 7.9 93 0.5 NE 9 9 5 5 1011.1 - 0.0
31/01:00am 8.9 6.7 7.9 93 0.5 NE 9 9 5 5 1011.8 - 0.0
31/12:30am 9.1 6.9 7.8 92 0.6 NE 9 11 5 6 1012.2 - 0.0
31/12:00am 9.2 7.0 8.0 92 0.6 NNE 9 11 5 6 1012.5 1012.4 0.0
 
Date/Time
CDT
Temp
°C
App
Temp
°C
Dew
Point
Rel
Hum
%
Delta-T
°C
Wind Press
QNH
hPa
Press
MSL
hPa
Rain
since 9 am
mm
Dir
 
Spd
km/h
Gust
km/h
Spd
kts
Gust
kts
30/11:30pm 9.2 7.3 7.5 89 0.8 NE 7 9 4 5 1012.9 - 0.0
30/11:00pm 8.7 5.5 7.0 89 0.8 NE 13 13 7 7 1012.9 - 0.0
30/10:30pm 9.3 7.0 7.6 89 0.8 NNE 9 9 5 5 1013.5 - 0.0
30/10:00pm 10.4 10.0 8.1 86 1.1 CALM 0 0 0 0 1013.7 - 0.0
30/09:30pm 10.6 10.2 8.4 86 1.1 CALM 0 6 0 3 1014.1 - 0.0
30/09:00pm 11.8 10.0 8.1 78 1.8 SW 7 9 4 5 1013.8 1013.7 0.0
30/08:30pm 12.5 10.0 8.0 74 2.2 WSW 11 13 6 7 1013.7 - 0.0
30/08:00pm 13.3 10.4 8.3 72 2.5 WSW 13 15 7 8 1013.4 - 0.0
30/07:30pm 14.4 11.2 8.5 67 3.0 WSW 15 19 8 10 1013.4 - 0.0
30/07:00pm 15.8 12.2 8.5 62 3.7 WSW 17 20 9 11 1013.0 - 0.0
30/06:30pm 17.1 13.9 8.6 57 4.4 WSW 15 19 8 10 1012.8 - 0.0
30/06:00pm 17.9 14.3 8.2 53 5.0 WSW 17 22 9 12 1012.8 1012.7 0.0
30/05:30pm 18.0 15.0 7.6 50 5.3 WSW 13 22 7 12 1012.6 - 0.0
30/05:00pm 18.6 14.8 7.6 48 5.6 W 17 24 9 13 1013.0 - 0.0
30/04:30pm 18.6 14.9 8.1 50 5.4 WSW 17 28 9 15 1013.2 - 0.0
30/04:00pm 18.7 15.0 7.8 49 5.6 WSW 17 24 9 13 1013.4 - 0.0
30/03:30pm 19.5 15.2 7.9 47 6.0 WSW 20 26 11 14 1013.5 - 0.0
30/03:00pm 19.3 15.4 7.3 45 6.1 W 17 24 9 13 1013.9 1013.8 0.0
30/02:30pm 18.9 14.2 7.8 48 5.7 W 22 30 12 16 1014.3 - 0.0
30/02:00pm 17.9 14.9 7.9 52 5.1 WSW 13 28 7 15 1014.4 - 0.0
30/01:30pm 17.7 14.5 8.6 55 4.7 W 15 26 8 14 1014.8 - 0.0
30/01:00pm 16.7 13.6 9.0 60 4.0 W 15 22 8 12 1015.0 - 0.0
30/12:30pm 16.5 13.5 9.2 62 3.8 NW 15 22 8 12 1015.0 - 0.0
30/12:00pm 15.6 11.8 9.0 65 3.4 NW 19 28 10 15 1015.4 1015.4 0.0
30/11:30am 15.9 12.6 8.0 59 4.0 WNW 15 20 8 11 1015.6 - 0.0
30/11:00am 15.4 11.6 7.6 59 3.9 W 17 26 9 14 1015.9 - 0.0
30/10:30am 14.6 11.9 8.9 68 2.9 W 13 17 7 9 1016.0 - 0.0
30/10:00am 14.3 12.5 10.9 80 1.8 W 11 15 6 8 1016.2 - 0.0
30/09:30am 13.7 12.3 10.9 83 1.5 WNW 9 15 5 8 1016.3 - 0.0
30/09:00am 13.1 11.8 11.4 89 0.9 NW 9 11 5 6 1016.2 1016.2 0.2
30/08:30am 12.6 11.3 11.3 92 0.7 NNW 9 13 5 7 1016.2 - 0.2
30/08:00am 12.2 11.0 11.6 96 0.3 NNW 9 13 5 7 1016.0 - 0.2
30/07:30am 11.6 9.5 11.2 97 0.2 WNW 13 19 7 10 1015.9 - 0.2
30/07:00am 11.1 9.2 10.5 96 0.3 NNW 11 15 6 8 1015.3 - 0.0
30/06:30am 10.2 8.4 9.6 96 0.3 NNW 9 13 5 7 1015.1 - 0.0
30/06:14am 10.7 8.6 9.9 95 0.4 WNW 11 19 6 10 1015.4 - 0.0
30/06:00am 10.4 8.6 9.6 95 0.4 NNW 9 9 5 5 1015.1 1015.1 0.0
30/05:30am 10.3 8.5 9.5 95 0.4 NNW 9 15 5 8 1014.7 - 0.0
30/05:00am 10.2 8.0 9.4 95 0.4 NNW 11 13 6 7 1014.7 - 0.0
30/04:30am 10.2 8.4 9.4 95 0.4 NNW 9 11 5 6 1014.6 - 0.0
30/04:00am 10.2 7.6 9.4 95 0.4 N 13 17 7 9 1014.4 - 0.0
30/03:30am 10.2 8.0 9.4 95 0.4 NNW 11 13 6 7 1015.1 - 0.0
30/03:00am 10.0 7.8 9.4 96 0.3 NNW 11 13 6 7 1015.3 1015.3 0.0
30/02:30am 10.0 7.4 9.2 95 0.4 NW 13 17 7 9 1015.2 - 0.0
30/02:00am 9.9 7.6 9.1 95 0.4 NNW 11 13 6 7 1015.3 - 0.0
30/01:30am 9.7 8.1 8.9 95 0.4 NW 7 11 4 6 1015.4 - 0.0
30/01:00am 9.7 8.1 8.9 95 0.4 NW 7 9 4 5 1015.6 - 0.0
30/12:30am 10.1 8.7 8.9 92 0.6 WNW 6 7 3 4 1015.8 - 0.0
30/12:00am 10.6 9.4 9.4 92 0.6 NW 6 7 3 4 1016.1 1016.1 0.0
 
Date/Time
CDT
Temp
°C
App
Temp
°C
Dew
Point
Rel
Hum
%
Delta-T
°C
Wind Press
QNH
hPa
Press
MSL
hPa
Rain
since 9 am
mm
Dir
 
Spd
km/h
Gust
km/h
Spd
kts
Gust
kts
29/11:30pm 11.2 9.8 9.4 89 0.9 NW 7 9 4 5 1016.4 - 0.0
29/11:00pm 11.4 10.2 9.4 87 1.0 W 6 7 3 4 1016.7 - 0.0
29/10:30pm 10.9 10.7 9.1 89 0.9 CALM 0 0 0 0 1016.8 - 0.0
29/10:00pm 11.4 11.3 9.6 89 0.9 CALM 0 0 0 0 1017.0 - 0.0
29/09:30pm 12.3 11.5 9.8 85 1.3 WSW 4 7 2 4 1017.0 - 0.0
29/09:00pm 13.1 11.4 9.8 80 1.7 WSW 9 11 5 6 1017.0 1017.0 0.0
29/08:30pm 13.4 11.3 9.7 78 1.9 W 11 20 6 11 1017.1 - 0.0
29/08:00pm 13.5 11.3 9.4 76 2.1 W 11 15 6 8 1017.0 - 0.0
29/07:30pm 13.9 10.1 9.2 73 2.4 W 19 26 10 14 1017.1 - 0.0
29/07:00pm 14.3 10.1 9.6 73 2.4 W 22 28 12 15 1017.0 - 0.0
29/06:30pm 14.7 10.1 9.5 71 2.7 W 24 33 13 18 1016.7 - 0.0
29/06:00pm 15.1 9.5 8.8 66 3.2 W 28 33 15 18 1016.5 1016.5 0.0
29/05:30pm 15.8 11.4 8.8 63 3.6 W 22 32 12 17 1016.6 - 0.0
29/05:00pm 16.0 11.7 9.5 65 3.4 WNW 22 30 12 16 1016.6 - 0.0
29/04:30pm 15.8 9.7 9.9 68 3.1 W 32 46 17 25 1016.5 - 0.0
29/04:00pm 16.7 10.4 9.6 63 3.7 W 33 41 18 22 1016.4 - 0.0
29/03:30pm 17.8 12.8 9.4 58 4.4 WNW 26 37 14 20 1016.2 - 0.0
29/03:00pm 17.8 12.1 8.3 53 4.9 WNW 28 37 15 20 1016.3 1016.3 0.0
29/02:30pm 18.3 12.5 9.6 57 4.6 WNW 30 37 16 20 1016.6 - 0.0
29/02:00pm 18.1 12.2 8.9 55 4.8 NW 30 33 16 18 1016.8 - 0.0
29/01:30pm 18.2 13.2 8.0 51 5.2 NNW 24 30 13 16 1016.9 - 0.0
29/01:00pm 17.2 11.6 8.7 57 4.4 NW 28 37 15 20 1017.2 - 0.0
29/12:30pm 16.9 12.4 8.7 58 4.2 WNW 22 32 12 17 1017.3 - 0.0
29/12:00pm 16.2 11.8 8.8 61 3.8 NW 22 32 12 17 1017.6 1017.6 0.0
29/11:30am 16.1 11.9 8.4 60 3.9 NW 20 26 11 14 1018.0 - 0.0
29/11:00am 15.7 11.0 9.1 65 3.4 N 24 30 13 16 1018.2 - 0.0
29/10:30am 15.5 11.4 8.6 63 3.5 NNW 20 30 11 16 1018.4 - 0.0
29/10:00am 14.0 9.9 8.6 70 2.7 WNW 20 28 11 15 1018.5 - 0.0
29/09:30am 14.3 10.4 8.5 68 2.9 NW 19 28 10 15 1018.5 - 0.0
29/09:00am 14.0 11.2 9.9 76 2.1 NNW 15 19 8 10 1018.5 1018.5 0.6
29/08:30am 12.9 10.0 9.8 81 1.6 NNW 15 19 8 10 1018.4 - 0.6
29/08:00am 12.2 10.4 9.4 83 1.4 NNW 9 13 5 7 1018.4 - 0.6
29/07:30am 11.5 9.1 10.1 91 0.7 N 13 17 7 9 1018.3 - 0.6
29/07:00am 11.1 9.1 10.1 94 0.5 NNW 11 15 6 8 1018.4 - 0.6
29/06:30am 10.8 9.1 10.0 95 0.4 NNW 9 13 5 7 1018.2 - 0.6
29/06:00am 10.6 8.1 9.8 95 0.4 NNW 13 17 7 9 1018.1 1018.1 0.6
29/05:30am 10.4 8.3 9.6 95 0.4 NNW 11 13 6 7 1017.9 - 0.6
29/05:00am 10.5 8.4 9.7 95 0.4 N 11 15 6 8 1017.8 - 0.6
29/04:30am 10.5 8.4 9.7 95 0.4 NNW 11 13 6 7 1017.6 - 0.6
29/04:00am 10.5 8.8 9.7 95 0.4 NNW 9 13 5 7 1017.6 - 0.6
29/03:30am 10.4 9.1 9.8 96 0.3 NNW 7 11 4 6 1017.5 - 0.6
29/03:00am 10.5 8.8 9.7 95 0.4 NNW 9 11 5 6 1017.7 1017.7 0.6
29/02:30am 10.8 8.7 9.8 93 0.5 NW 11 13 6 7 1017.9 - 0.6
29/02:00am 10.6 8.5 9.6 93 0.5 NW 11 11 6 6 1017.8 - 0.6
29/01:30am 10.9 8.8 9.7 92 0.6 NW 11 13 6 7 1018.0 - 0.6
29/01:00am 10.6 8.8 9.6 93 0.5 NNW 9 11 5 6 1018.1 - 0.6
29/12:30am 11.0 9.6 9.6 91 0.7 SW 7 9 4 5 1018.5 - 0.6
29/12:00am 10.7 8.6 9.7 93 0.5 NNW 11 13 6 7 1018.5 1018.5 0.6
 
Date/Time
CDT
Temp
°C
App
Temp
°C
Dew
Point
Rel
Hum
%
Delta-T
°C
Wind Press
QNH
hPa
Press
MSL
hPa
Rain
since 9 am
mm
Dir
 
Spd
km/h
Gust
km/h
Spd
kts
Gust
kts
28/11:30pm 10.7 8.6 9.7 93 0.5 NW 11 13 6 7 1018.5 - 0.6
28/11:00pm 10.6 8.5 9.6 93 0.5 NNW 11 13 6 7 1018.5 - 0.6
28/10:30pm 10.6 8.8 9.6 93 0.5 NNW 9 13 5 7 1018.6 - 0.6
28/10:00pm 10.7 9.3 9.7 93 0.5 NW 7 15 4 8 1018.5 - 0.6
28/09:30pm 10.4 8.6 9.4 93 0.5 WNW 9 11 5 6 1018.5 - 0.6
28/09:00pm 10.9 8.7 9.5 91 0.7 WNW 11 15 6 8 1018.3 1018.3 0.6
28/08:30pm 12.0 9.1 9.8 86 1.1 W 15 20 8 11 1018.1 - 0.6
28/08:00pm 12.0 9.8 9.4 84 1.3 W 11 19 6 10 1017.9 - 0.6
28/07:30pm 11.8 9.6 9.2 84 1.3 W 11 13 6 7 1017.7 - 0.6
28/07:00pm 13.2 8.9 7.7 69 2.7 WSW 20 28 11 15 1017.5 - 0.6
28/06:30pm 13.5 7.4 6.7 63 3.3 W 28 33 15 18 1017.2 - 0.6

Other Formats:

Comma delimited format used in spreadsheet applications
http://www.bom.gov.au/fwo/IDS60801/IDS60801.94821.axf

JavaScript Object Notation format (JSON) in row-major order
http://www.bom.gov.au/fwo/IDS60801/IDS60801.94821.json